createdAt,value
2016-11-13T00:01:07.782Z,0.1
2016-11-13T00:02:09.232Z,0.1
2016-11-13T00:03:10.676Z,0.1
2016-11-13T00:04:12.124Z,0
2016-11-13T00:05:13.627Z,0
2016-11-13T00:06:15.067Z,0
2016-11-13T00:07:16.507Z,0
2016-11-13T00:08:17.939Z,0
2016-11-13T00:09:19.370Z,0
2016-11-13T00:10:20.820Z,0
2016-11-13T00:11:21.756Z,0
2016-11-13T00:12:23.194Z,0
2016-11-13T00:13:24.636Z,0
2016-11-13T00:14:26.079Z,0
2016-11-13T00:15:27.522Z,0
2016-11-13T00:17:30.360Z,0
2016-11-13T00:18:31.794Z,-0.1
2016-11-13T00:19:33.228Z,-0.1
2016-11-13T00:20:34.669Z,-0.1
2016-11-13T00:21:36.117Z,-0.1
2016-11-13T00:22:37.358Z,-0.1
2016-11-13T00:23:38.797Z,-0.1
2016-11-13T00:24:40.266Z,-0.1
2016-11-13T00:25:41.707Z,-0.1
2016-11-13T00:26:43.147Z,-0.1
2016-11-13T00:27:44.592Z,-0.1
2016-11-13T00:28:46.095Z,-0.2
2016-11-13T00:29:47.027Z,-0.1
2016-11-13T00:30:48.465Z,-0.2
2016-11-13T00:31:49.896Z,-0.2
2016-11-13T00:32:51.335Z,-0.2
2016-11-13T00:33:52.775Z,-0.2
2016-11-13T00:34:54.214Z,-0.2
2016-11-13T00:35:55.684Z,-0.2
2016-11-13T00:36:57.117Z,-0.2
2016-11-13T00:37:58.554Z,-0.2
2016-11-13T00:40:01.391Z,-0.3
2016-11-13T00:41:02.833Z,-0.3
2016-11-13T00:42:03.767Z,-0.3
2016-11-13T00:43:05.201Z,-0.3
2016-11-13T00:44:06.638Z,-0.3
2016-11-13T00:45:08.081Z,-0.3
2016-11-13T00:47:10.917Z,-0.3
2016-11-13T00:48:12.359Z,-0.3
2016-11-13T00:49:13.800Z,-0.3
2016-11-13T00:50:15.237Z,-0.3
2016-11-13T00:51:16.678Z,-0.3
2016-11-13T00:52:18.115Z,-0.3
2016-11-13T00:53:19.547Z,-0.3
2016-11-13T00:54:20.484Z,-0.4
2016-11-13T00:55:21.929Z,-0.4
2016-11-13T00:56:23.373Z,-0.4
2016-11-13T00:57:24.808Z,-0.4
2016-11-13T00:58:26.245Z,-0.4
2016-11-13T00:59:27.684Z,-0.4
2016-11-13T01:00:29.130Z,-0.4
2016-11-13T01:01:30.570Z,-0.4
2016-11-13T01:02:32.145Z,-0.4
2016-11-13T01:03:33.079Z,-0.4
2016-11-13T01:04:34.523Z,-0.4
2016-11-13T01:05:35.959Z,-0.4
2016-11-13T01:06:37.395Z,-0.5
2016-11-13T01:07:38.837Z,-0.5
2016-11-13T01:08:40.303Z,-0.5
2016-11-13T01:09:41.749Z,-0.5
2016-11-13T01:11:44.589Z,-0.5
2016-11-13T01:12:46.028Z,-0.5
2016-11-13T01:13:46.962Z,-0.5
2016-11-13T01:14:48.409Z,-0.5
2016-11-13T01:16:51.248Z,-0.6
2016-11-13T01:17:52.692Z,-0.6
2016-11-13T01:18:54.133Z,-0.6
2016-11-13T01:19:55.575Z,-0.6
2016-11-13T01:20:57.015Z,-0.6
2016-11-13T01:21:58.459Z,-0.6
2016-11-13T01:22:59.896Z,-0.6
2016-11-13T01:24:00.832Z,-0.6
2016-11-13T01:25:02.281Z,-0.6
2016-11-13T01:26:03.721Z,-0.6
2016-11-13T01:27:05.167Z,-0.6
2016-11-13T01:28:06.637Z,-0.6
2016-11-13T01:29:08.081Z,-0.6
2016-11-13T01:30:09.519Z,-0.6
2016-11-13T01:31:10.958Z,-0.6
2016-11-13T01:32:12.395Z,-0.6
2016-11-13T01:33:13.334Z,-0.6
2016-11-13T01:34:14.804Z,-0.6
2016-11-13T01:35:16.259Z,-0.6
2016-11-13T01:36:17.697Z,-0.7
2016-11-13T01:37:19.130Z,-0.6
2016-11-13T01:38:20.566Z,-0.7
2016-11-13T01:39:22.005Z,-0.7
2016-11-13T01:40:23.442Z,-0.7
2016-11-13T01:41:24.884Z,-0.7
2016-11-13T01:42:25.816Z,-0.7
2016-11-13T01:43:27.252Z,-0.7
2016-11-13T01:44:28.691Z,-0.7
2016-11-13T01:46:31.530Z,-0.7
2016-11-13T01:47:32.972Z,-0.7
2016-11-13T01:48:34.548Z,-0.7
2016-11-13T01:49:35.487Z,-0.7
2016-11-13T01:50:36.925Z,-0.7
2016-11-13T01:51:38.430Z,-0.7
2016-11-13T01:52:39.860Z,-0.7
2016-11-13T01:53:41.303Z,-0.8
2016-11-13T01:54:42.741Z,-0.8
2016-11-13T01:55:44.179Z,-0.8
2016-11-13T01:56:45.611Z,-0.8
2016-11-13T01:57:46.550Z,-0.8
2016-11-13T01:58:47.990Z,-0.8
2016-11-13T01:59:49.429Z,-0.8
2016-11-13T02:00:50.872Z,-0.8
2016-11-13T02:01:52.312Z,-0.8
2016-11-13T02:02:53.753Z,-0.8
2016-11-13T02:03:55.184Z,-0.8
2016-11-13T02:04:56.782Z,-0.8
2016-11-13T02:05:57.721Z,-0.8
2016-11-13T02:06:59.158Z,-0.9
2016-11-13T02:08:00.598Z,-0.9
2016-11-13T02:09:02.172Z,-0.9
2016-11-13T02:10:03.617Z,-0.9
2016-11-13T02:11:04.547Z,-0.9
2016-11-13T02:12:05.979Z,-0.9
2016-11-13T02:13:07.415Z,-0.9
2016-11-13T02:14:08.849Z,-0.9
2016-11-13T02:16:11.685Z,-0.9
2016-11-13T02:17:13.124Z,-0.9
2016-11-13T02:18:14.562Z,-0.9
2016-11-13T02:19:16.001Z,-0.9
2016-11-13T02:20:17.473Z,-0.9
2016-11-13T02:21:18.416Z,-0.9
2016-11-13T02:22:19.857Z,-0.9
2016-11-13T02:23:21.295Z,-0.9
2016-11-13T02:24:22.737Z,-0.9
2016-11-13T02:25:24.177Z,-0.9
2016-11-13T02:26:25.610Z,-0.9
2016-11-13T02:27:27.054Z,-0.9
2016-11-13T02:28:28.495Z,-1
2016-11-13T02:29:29.435Z,-1
2016-11-13T02:30:30.874Z,-1
2016-11-13T02:31:32.319Z,-1
2016-11-13T02:32:33.759Z,-1
2016-11-13T02:33:35.196Z,-1
2016-11-13T02:34:36.635Z,-1
2016-11-13T02:35:38.077Z,-1
2016-11-13T02:36:39.518Z,-1
2016-11-13T02:37:40.452Z,-1
2016-11-13T02:38:41.897Z,-1
2016-11-13T02:39:43.337Z,-1
2016-11-13T02:40:44.780Z,-1
2016-11-13T02:41:46.214Z,-1
2016-11-13T02:42:47.686Z,-1
2016-11-13T02:43:49.158Z,-1
2016-11-13T02:44:50.097Z,-1
2016-11-13T02:45:51.528Z,-1
2016-11-13T02:46:52.975Z,-1.1
2016-11-13T02:47:54.414Z,-1.1
2016-11-13T02:48:55.849Z,-1.1
2016-11-13T02:49:57.289Z,-1.1
2016-11-13T02:50:58.721Z,-1.1
2016-11-13T02:52:00.162Z,-1.1
2016-11-13T02:53:01.099Z,-1.1
2016-11-13T02:54:02.534Z,-1.1
2016-11-13T02:55:03.979Z,-1.1
2016-11-13T02:57:06.813Z,-1.1
2016-11-13T02:59:09.645Z,-1.1
2016-11-13T03:00:11.087Z,-1.1
2016-11-13T03:01:12.526Z,-1.2
2016-11-13T03:02:13.462Z,-1.2
2016-11-13T03:03:14.904Z,-1.2
2016-11-13T03:04:16.334Z,-1.2
2016-11-13T03:05:17.766Z,-1.2
2016-11-13T03:06:19.332Z,-1.2
2016-11-13T03:07:20.765Z,-1.2
2016-11-13T03:08:21.707Z,-1.2
2016-11-13T03:09:23.177Z,-1.2
2016-11-13T03:10:24.611Z,-1.2
2016-11-13T03:11:26.045Z,-1.2
2016-11-13T03:12:27.479Z,-1.2
2016-11-13T03:13:28.907Z,-1.2
2016-11-13T03:14:30.351Z,-1.2
2016-11-13T03:15:31.791Z,-1.2
2016-11-13T03:16:32.723Z,-1.2
2016-11-13T03:17:34.166Z,-1.2
2016-11-13T03:18:35.610Z,-1.2
2016-11-13T03:19:37.043Z,-1.2
2016-11-13T03:20:38.483Z,-1.2
2016-11-13T03:21:39.921Z,-1.2
2016-11-13T03:22:41.356Z,-1.2
2016-11-13T03:23:42.790Z,-1.2
2016-11-13T03:24:43.758Z,-1.2
2016-11-13T03:25:45.200Z,-1.3
2016-11-13T03:26:46.637Z,-1.2
2016-11-13T03:27:48.068Z,-1.3
2016-11-13T03:28:49.499Z,-1.3
2016-11-13T03:29:50.930Z,-1.3
2016-11-13T03:30:52.361Z,-1.3
2016-11-13T03:31:53.294Z,-1.3
2016-11-13T03:32:54.733Z,-1.3
2016-11-13T03:33:56.165Z,-1.3
2016-11-13T03:34:57.602Z,-1.3
2016-11-13T03:35:59.041Z,-1.3
2016-11-13T03:38:01.880Z,-1.3
2016-11-13T03:39:03.315Z,-1.3
2016-11-13T03:40:04.753Z,-1.3
2016-11-13T03:41:05.685Z,-1.3
2016-11-13T03:42:07.120Z,-1.3
2016-11-13T03:43:08.555Z,-1.3
2016-11-13T03:44:10.000Z,-1.3
2016-11-13T03:45:11.438Z,-1.3
2016-11-13T03:46:12.870Z,-1.3
2016-11-13T03:47:14.304Z,-1.3
2016-11-13T03:48:15.236Z,-1.3
2016-11-13T03:49:16.671Z,-1.3
2016-11-13T03:50:18.107Z,-1.3
2016-11-13T03:51:19.542Z,-1.3
2016-11-13T03:53:22.384Z,-1.3
2016-11-13T03:54:23.816Z,-1.4
2016-11-13T03:55:25.253Z,-1.4
2016-11-13T03:56:26.686Z,-1.4
2016-11-13T03:57:27.618Z,-1.4
2016-11-13T03:58:29.055Z,-1.4
2016-11-13T03:59:30.490Z,-1.4
2016-11-13T04:00:31.929Z,-1.4
2016-11-13T04:01:33.364Z,-1.4
2016-11-13T04:02:34.797Z,-1.4
2016-11-13T04:03:36.229Z,-1.4
2016-11-13T04:04:37.165Z,-1.4
2016-11-13T04:05:38.600Z,-1.4
2016-11-13T04:06:40.036Z,-1.4
2016-11-13T04:07:41.474Z,-1.5
2016-11-13T04:08:42.910Z,-1.5
2016-11-13T04:09:44.344Z,-1.5
2016-11-13T04:10:45.776Z,-1.5
2016-11-13T04:11:47.215Z,-1.5
2016-11-13T04:12:48.142Z,-1.5
2016-11-13T04:13:49.584Z,-1.5
2016-11-13T04:14:51.064Z,-1.5
2016-11-13T04:15:52.503Z,-1.5
2016-11-13T04:16:53.937Z,-1.5
2016-11-13T04:18:56.775Z,-1.5
2016-11-13T04:19:57.710Z,-1.5
2016-11-13T04:20:59.151Z,-1.5
2016-11-13T04:22:00.590Z,-1.5
2016-11-13T04:23:02.027Z,-1.5
2016-11-13T04:24:03.458Z,-1.5
2016-11-13T04:25:04.897Z,-1.5
2016-11-13T04:26:06.339Z,-1.5
2016-11-13T04:27:07.288Z,-1.5
2016-11-13T04:28:08.720Z,-1.5
2016-11-13T04:29:10.153Z,-1.5
2016-11-13T04:30:11.581Z,-1.5
2016-11-13T04:31:13.013Z,-1.5
2016-11-13T04:32:14.447Z,-1.5
2016-11-13T04:33:15.882Z,-1.5
2016-11-13T04:34:16.814Z,-1.5
2016-11-13T04:35:18.246Z,-1.5
2016-11-13T04:36:19.681Z,-1.5
2016-11-13T04:37:21.119Z,-1.6
2016-11-13T04:38:22.553Z,-1.6
2016-11-13T04:39:23.986Z,-1.6
2016-11-13T04:40:25.420Z,-1.6
2016-11-13T04:41:26.351Z,-1.6
2016-11-13T04:42:27.790Z,-1.6
2016-11-13T04:43:29.224Z,-1.6
2016-11-13T04:44:30.657Z,-1.6
2016-11-13T04:45:32.118Z,-1.6
2016-11-13T04:46:33.553Z,-1.6
2016-11-13T04:47:34.995Z,-1.6
2016-11-13T04:48:35.927Z,-1.6
2016-11-13T04:49:37.370Z,-1.6
2016-11-13T04:50:38.801Z,-1.6
2016-11-13T04:51:40.236Z,-1.6
2016-11-13T04:52:41.669Z,-1.6
2016-11-13T04:53:43.111Z,-1.6
2016-11-13T04:54:44.540Z,-1.6
2016-11-13T04:55:45.476Z,-1.6
2016-11-13T04:56:46.907Z,-1.6
2016-11-13T04:57:48.349Z,-1.6
2016-11-13T04:58:49.783Z,-1.5
2016-11-13T04:59:51.216Z,-1.5
2016-11-13T05:00:52.647Z,-1.4
2016-11-13T05:01:54.085Z,-1.4
2016-11-13T05:02:55.521Z,-1.3
2016-11-13T05:03:56.454Z,-1.3
2016-11-13T05:04:57.887Z,-1.2
2016-11-13T05:05:59.319Z,-1.2
2016-11-13T05:07:00.750Z,-1.2
2016-11-13T05:08:02.184Z,-1.2
2016-11-13T05:09:03.621Z,-1.2
2016-11-13T05:11:06.460Z,-1.1
2016-11-13T05:12:07.392Z,-1.1
2016-11-13T05:13:08.821Z,-1.1
2016-11-13T05:14:10.255Z,-1.1
2016-11-13T05:15:11.692Z,-1.1
2016-11-13T05:16:13.128Z,-1.1
2016-11-13T05:17:14.562Z,-1
2016-11-13T05:18:15.994Z,-1
2016-11-13T05:19:17.431Z,-1
2016-11-13T05:20:18.367Z,-1
2016-11-13T05:21:19.799Z,-1
2016-11-13T05:22:21.236Z,-1
2016-11-13T05:23:22.668Z,-1
2016-11-13T05:24:24.102Z,-1
2016-11-13T05:25:25.542Z,-1
2016-11-13T05:26:26.981Z,-1
2016-11-13T05:27:28.419Z,-1
2016-11-13T05:28:29.351Z,-0.9
2016-11-13T05:29:30.792Z,-0.9
2016-11-13T05:30:32.231Z,-0.9
2016-11-13T05:31:33.663Z,-0.9
2016-11-13T05:32:35.095Z,-0.9
2016-11-13T05:33:36.529Z,-0.9
2016-11-13T05:34:37.966Z,-0.9
2016-11-13T05:35:39.401Z,-0.9
2016-11-13T05:36:40.331Z,-0.9
2016-11-13T05:37:41.766Z,-0.9
2016-11-13T05:38:43.204Z,-0.9
2016-11-13T05:40:46.042Z,-0.9
2016-11-13T05:41:47.480Z,-0.9
2016-11-13T05:42:48.915Z,-0.9
2016-11-13T05:43:50.349Z,-0.9
2016-11-13T05:44:51.791Z,-0.9
2016-11-13T05:45:52.715Z,-1
2016-11-13T05:46:54.215Z,-0.9
2016-11-13T05:47:55.649Z,-1
2016-11-13T05:48:57.086Z,-1
2016-11-13T05:49:58.514Z,-1
2016-11-13T05:50:59.951Z,-1
2016-11-13T05:52:01.389Z,-1
2016-11-13T05:53:02.826Z,-1
2016-11-13T05:54:03.752Z,-1
2016-11-13T05:55:05.187Z,-1
2016-11-13T05:56:06.622Z,-1
2016-11-13T05:57:08.069Z,-1
2016-11-13T05:58:09.506Z,-1
2016-11-13T05:59:10.937Z,-1
2016-11-13T06:00:12.371Z,-1
2016-11-13T06:01:13.806Z,-1
2016-11-13T06:02:14.737Z,-1
2016-11-13T06:03:16.165Z,-1
2016-11-13T06:05:19.027Z,-1
2016-11-13T06:06:20.466Z,-1
2016-11-13T06:07:21.938Z,-1
2016-11-13T06:08:23.371Z,-1
2016-11-13T06:10:26.205Z,-1
2016-11-13T06:11:27.143Z,-1
2016-11-13T06:12:28.582Z,-1
2016-11-13T06:13:30.019Z,-1
2016-11-13T06:14:31.457Z,-1
2016-11-13T06:15:32.889Z,-1
2016-11-13T06:16:34.330Z,-0.9
2016-11-13T06:17:35.773Z,-1
2016-11-13T06:18:37.212Z,-1
2016-11-13T06:19:38.158Z,-1
2016-11-13T06:20:39.622Z,-1
2016-11-13T06:21:41.056Z,-1
2016-11-13T06:22:42.489Z,-1
2016-11-13T06:23:43.928Z,-1
2016-11-13T06:24:45.364Z,-1
2016-11-13T06:25:46.814Z,-1
2016-11-13T06:26:47.751Z,-1
2016-11-13T06:27:49.188Z,-1
2016-11-13T06:28:50.623Z,-1
2016-11-13T06:29:52.125Z,-1
2016-11-13T06:30:53.564Z,-1
2016-11-13T06:31:54.998Z,-1.1
2016-11-13T06:32:56.434Z,-1.1
2016-11-13T06:33:57.367Z,-1
2016-11-13T06:34:58.806Z,-1
2016-11-13T06:36:00.245Z,-0.9
2016-11-13T06:37:01.679Z,-0.9
2016-11-13T06:38:03.115Z,-0.8
2016-11-13T06:40:05.954Z,-0.8
2016-11-13T06:41:07.389Z,-0.7
2016-11-13T06:42:08.829Z,-0.7
2016-11-13T06:43:10.264Z,-0.7
2016-11-13T06:44:11.198Z,-0.7
2016-11-13T06:45:12.636Z,-0.7
2016-11-13T06:46:14.076Z,-0.7
2016-11-13T06:47:15.510Z,-0.6
2016-11-13T06:48:16.944Z,-0.6
2016-11-13T06:49:18.381Z,-0.7
2016-11-13T06:50:19.834Z,-0.7
2016-11-13T06:51:21.271Z,-0.7
2016-11-13T06:52:22.201Z,-0.6
2016-11-13T06:53:23.632Z,-0.7
2016-11-13T06:54:25.067Z,-0.6
2016-11-13T06:55:26.499Z,-0.6
2016-11-13T06:56:27.931Z,-0.6
2016-11-13T06:57:29.374Z,-0.6
2016-11-13T06:58:30.808Z,-0.6
2016-11-13T06:59:32.243Z,-0.6
2016-11-13T07:00:33.679Z,-0.6
2016-11-13T07:01:34.613Z,-0.6
2016-11-13T07:02:36.047Z,-0.6
2016-11-13T07:03:37.480Z,-0.6
2016-11-13T07:04:38.909Z,-0.6
2016-11-13T07:05:40.345Z,-0.7
2016-11-13T07:06:41.776Z,-0.7
2016-11-13T07:07:43.210Z,-0.6
2016-11-13T07:08:44.639Z,-0.7
2016-11-13T07:09:46.069Z,-0.6
2016-11-13T07:10:47.508Z,-0.6
2016-11-13T07:11:48.444Z,-0.6
2016-11-13T07:12:49.882Z,-0.6
2016-11-13T07:13:51.311Z,-0.6
2016-11-13T07:14:52.739Z,-0.6
2016-11-13T07:15:54.179Z,-0.5
2016-11-13T07:16:55.611Z,-0.5
2016-11-13T07:17:57.104Z,-0.5
2016-11-13T07:18:58.544Z,-0.5
2016-11-13T07:19:59.976Z,-0.5
2016-11-13T07:21:00.906Z,-0.5
2016-11-13T07:22:02.342Z,-0.5
2016-11-13T07:23:03.782Z,-0.5
2016-11-13T07:24:05.215Z,-0.5
2016-11-13T07:25:06.647Z,-0.5
2016-11-13T07:26:08.086Z,-0.5
2016-11-13T07:27:09.521Z,-0.5
2016-11-13T07:28:10.952Z,-0.5
2016-11-13T07:29:12.386Z,-0.5
2016-11-13T07:30:13.822Z,-0.5
2016-11-13T07:31:14.749Z,-0.4
2016-11-13T07:32:16.197Z,-0.4
2016-11-13T07:33:17.634Z,-0.4
2016-11-13T07:34:19.067Z,-0.4
2016-11-13T07:35:20.503Z,-0.4
2016-11-13T07:36:21.938Z,-0.3
2016-11-13T07:37:23.370Z,-0.3
2016-11-13T07:38:24.804Z,-0.3
2016-11-13T07:39:26.237Z,-0.3
2016-11-13T07:40:27.670Z,-0.4
2016-11-13T07:41:29.110Z,-0.3
2016-11-13T07:43:31.435Z,-0.3
2016-11-13T07:44:32.863Z,-0.3
2016-11-13T07:45:34.297Z,-0.3
2016-11-13T07:46:35.794Z,-0.3
2016-11-13T07:47:37.230Z,-0.2
2016-11-13T07:48:38.664Z,-0.2
2016-11-13T07:49:40.098Z,-0.2
2016-11-13T07:50:41.544Z,-0.2
2016-11-13T07:51:42.986Z,-0.2
2016-11-13T07:52:44.417Z,-0.1
2016-11-13T07:53:45.353Z,-0.1
2016-11-13T07:54:46.783Z,-0.1
2016-11-13T07:55:48.216Z,-0.1
2016-11-13T07:56:49.685Z,-0.1
2016-11-13T07:57:51.119Z,-0.1
2016-11-13T07:58:52.553Z,-0.1
2016-11-13T07:59:53.994Z,0
2016-11-13T08:00:55.433Z,0
2016-11-13T08:01:56.863Z,0
2016-11-13T08:02:58.299Z,0
2016-11-13T08:03:59.731Z,0
2016-11-13T08:05:01.164Z,0
2016-11-13T08:06:02.097Z,0
2016-11-13T08:07:03.522Z,0
2016-11-13T08:08:04.962Z,0
2016-11-13T08:09:06.395Z,0.1
2016-11-13T08:10:07.828Z,0.1
2016-11-13T08:11:09.261Z,0.1
2016-11-13T08:12:10.697Z,0.1
2016-11-13T08:13:12.126Z,0.1
2016-11-13T08:14:13.559Z,0.1
2016-11-13T08:15:15.027Z,0.1
2016-11-13T08:16:16.496Z,0.1
2016-11-13T08:17:17.930Z,0.1
2016-11-13T08:18:19.365Z,0.1
2016-11-13T08:19:20.795Z,0.1
2016-11-13T08:21:23.130Z,0.1
2016-11-13T08:22:24.599Z,0
2016-11-13T08:23:26.039Z,0.1
2016-11-13T08:24:27.483Z,0.1
2016-11-13T08:25:28.927Z,0.1
2016-11-13T08:26:30.363Z,0.1
2016-11-13T08:27:31.798Z,0
2016-11-13T08:28:33.224Z,0
2016-11-13T08:29:34.657Z,0
2016-11-13T08:30:36.093Z,0
2016-11-13T08:32:38.919Z,0
2016-11-13T08:33:40.353Z,0
2016-11-13T08:34:41.781Z,0
2016-11-13T08:35:43.218Z,0
2016-11-13T08:36:44.154Z,0
2016-11-13T08:37:45.587Z,0
2016-11-13T08:38:47.019Z,0
2016-11-13T08:39:48.448Z,0
2016-11-13T08:40:49.891Z,0
2016-11-13T08:41:51.325Z,0
2016-11-13T08:42:52.760Z,0
2016-11-13T08:46:11.965Z,0
2016-11-13T08:46:58.308Z,0
2016-11-13T08:48:46.820Z,0
2016-11-13T08:50:02.850Z,0
2016-11-13T08:51:03.786Z,0
2016-11-13T08:52:05.218Z,0
2016-11-13T08:53:06.655Z,0
2016-11-13T08:54:08.093Z,0
2016-11-13T08:55:09.541Z,0.1
2016-11-13T08:56:11.009Z,0.1
2016-11-13T08:57:12.452Z,0.1
2016-11-13T08:58:13.893Z,0.1
2016-11-13T08:59:15.327Z,0.1
2016-11-13T09:00:16.773Z,0.1
2016-11-13T09:01:18.211Z,0.1
2016-11-13T09:02:19.655Z,0.1
2016-11-13T09:03:20.811Z,0.1
2016-11-13T09:04:22.328Z,0.1
2016-11-13T09:05:23.432Z,0.1
2016-11-13T09:06:24.903Z,0.1
2016-11-13T09:07:26.308Z,0.1
2016-11-13T09:08:28.094Z,0.1
2016-11-13T09:09:29.078Z,0.1
2016-11-13T09:10:30.516Z,0.2
2016-11-13T09:11:31.954Z,0.2
2016-11-13T09:12:33.396Z,0.2
2016-11-13T09:13:34.836Z,0.2
2016-11-13T09:14:36.280Z,0.2
2016-11-13T09:15:37.714Z,0.2
2016-11-13T09:16:39.146Z,0.2
2016-11-13T09:17:40.581Z,0.2
2016-11-13T09:18:42.017Z,0.3
2016-11-13T09:19:43.463Z,0.3
2016-11-13T09:20:44.899Z,0.3
2016-11-13T09:21:46.335Z,0.3
2016-11-13T09:22:47.774Z,0.3
2016-11-13T09:23:48.719Z,0.3
2016-11-13T09:24:50.198Z,0.3
2016-11-13T09:25:51.636Z,0.3
2016-11-13T09:26:53.070Z,0.3
2016-11-13T09:27:54.539Z,0.3
2016-11-13T09:28:55.979Z,0.4
2016-11-13T09:29:57.424Z,0.4
2016-11-13T09:30:58.886Z,0.4
2016-11-13T09:33:01.724Z,0.4
2016-11-13T09:34:03.163Z,0.4
2016-11-13T09:35:04.644Z,0.4
2016-11-13T09:36:06.079Z,0.4
2016-11-13T09:37:07.017Z,0.4
2016-11-13T09:38:08.458Z,0.4
2016-11-13T09:39:09.894Z,0.5
2016-11-13T09:40:11.334Z,0.5
2016-11-13T09:41:12.774Z,0.5
2016-11-13T09:42:14.211Z,0.5
2016-11-13T09:43:15.650Z,0.5
2016-11-13T09:44:17.096Z,0.5
2016-11-13T09:45:18.540Z,0.6
2016-11-13T09:46:19.986Z,0.6
2016-11-13T09:47:21.429Z,0.6
2016-11-13T09:48:22.864Z,0.6
2016-11-13T09:49:24.306Z,0.6
2016-11-13T09:50:25.749Z,0.6
2016-11-13T09:51:27.187Z,0.6
2016-11-13T09:52:28.628Z,0.7
2016-11-13T09:53:30.069Z,0.7
2016-11-13T09:55:32.905Z,0.7
2016-11-13T09:56:34.348Z,0.7
2016-11-13T09:57:35.788Z,0.8
2016-11-13T09:58:36.723Z,0.8
2016-11-13T09:59:38.171Z,0.8
2016-11-13T10:00:39.614Z,0.8
2016-11-13T10:01:41.053Z,0.8
2016-11-13T10:02:42.488Z,0.9
2016-11-13T10:03:43.929Z,0.9
2016-11-13T10:04:45.372Z,0.9
2016-11-13T10:05:46.810Z,0.9
2016-11-13T10:06:48.244Z,0.9
2016-11-13T10:07:49.686Z,1
2016-11-13T10:08:51.126Z,1
2016-11-13T10:09:52.560Z,1
2016-11-13T10:10:53.994Z,1.1
2016-11-13T10:11:55.430Z,1.1
2016-11-13T10:12:56.904Z,1.1
2016-11-13T10:13:58.343Z,1.1
2016-11-13T10:14:59.783Z,1.2
2016-11-13T10:16:01.224Z,1.2
2016-11-13T10:18:04.058Z,1.3
2016-11-13T10:19:05.495Z,1.4
2016-11-13T10:20:06.933Z,1.4
2016-11-13T10:21:08.371Z,1.4
2016-11-13T10:22:09.810Z,1.5
2016-11-13T10:23:11.251Z,1.5
2016-11-13T10:24:12.685Z,1.5
2016-11-13T10:25:14.126Z,1.6
2016-11-13T10:26:15.564Z,1.6
2016-11-13T10:27:17.003Z,1.7
2016-11-13T10:29:19.841Z,1.7
2016-11-13T10:30:21.277Z,1.7
2016-11-13T10:31:22.722Z,1.8
2016-11-13T10:32:24.159Z,1.8
2016-11-13T10:33:25.594Z,1.8
2016-11-13T10:34:27.030Z,1.8
2016-11-13T10:35:28.469Z,1.9
2016-11-13T10:36:29.914Z,1.9
2016-11-13T10:37:31.356Z,1.9
2016-11-13T10:38:32.797Z,1.9
2016-11-13T10:39:34.238Z,2
2016-11-13T10:40:35.680Z,2
2016-11-13T10:41:37.121Z,2
2016-11-13T10:42:38.559Z,2
2016-11-13T10:43:39.998Z,2
2016-11-13T10:44:41.437Z,2
2016-11-13T10:45:42.874Z,2
2016-11-13T10:47:45.709Z,2
2016-11-13T10:48:47.147Z,2
2016-11-13T10:49:48.583Z,2
2016-11-13T10:50:50.019Z,2
2016-11-13T10:51:51.454Z,2
2016-11-13T10:52:52.897Z,2
2016-11-13T10:53:54.340Z,2
2016-11-13T10:54:55.916Z,2
2016-11-13T10:55:57.354Z,2
2016-11-13T10:56:58.790Z,2
2016-11-13T10:58:00.228Z,2
2016-11-13T10:59:01.667Z,2
2016-11-13T11:00:03.108Z,2
2016-11-13T11:01:04.550Z,2
2016-11-13T11:02:05.991Z,2
2016-11-13T11:03:07.426Z,2
2016-11-13T11:04:08.860Z,2
2016-11-13T11:05:10.303Z,2
2016-11-13T11:06:11.743Z,2
2016-11-13T11:07:13.182Z,2
2016-11-13T11:08:14.623Z,2
2016-11-13T11:09:16.064Z,2
2016-11-13T11:10:17.646Z,2
2016-11-13T11:11:19.091Z,2
2016-11-13T11:12:20.527Z,2
2016-11-13T11:13:21.965Z,2
2016-11-13T11:14:23.400Z,2
2016-11-13T11:15:24.835Z,2
2016-11-13T11:16:26.282Z,1.9
2016-11-13T11:17:27.725Z,1.9
2016-11-13T11:18:29.160Z,1.9
2016-11-13T11:19:30.602Z,1.9
2016-11-13T11:21:33.437Z,1.9
2016-11-13T11:22:34.874Z,1.9
2016-11-13T11:24:37.716Z,1.9
2016-11-13T11:25:39.160Z,1.9
2016-11-13T11:26:40.600Z,1.9
2016-11-13T11:27:42.038Z,1.8
2016-11-13T11:28:43.478Z,1.8
2016-11-13T11:29:44.915Z,1.8
2016-11-13T11:30:46.353Z,1.8
2016-11-13T11:31:47.795Z,1.8
2016-11-13T11:32:49.232Z,1.8
2016-11-13T11:33:50.673Z,1.8
2016-11-13T11:34:52.110Z,1.8
2016-11-13T11:35:53.788Z,1.8
2016-11-13T11:36:55.227Z,1.7
2016-11-13T11:37:56.683Z,1.7
2016-11-13T11:38:58.124Z,1.7
2016-11-13T11:39:59.640Z,1.7
2016-11-13T11:41:01.111Z,1.7
2016-11-13T11:43:03.953Z,1.7
2016-11-13T11:44:05.387Z,1.7
2016-11-13T11:45:06.831Z,1.7
2016-11-13T11:46:08.275Z,1.7
2016-11-13T11:47:09.713Z,1.7
2016-11-13T11:48:11.149Z,1.7
2016-11-13T11:49:12.588Z,1.7
2016-11-13T11:50:14.030Z,1.7
2016-11-13T11:51:15.467Z,1.7
2016-11-13T11:52:16.903Z,1.7
2016-11-13T11:53:18.341Z,1.7
2016-11-13T11:54:19.780Z,1.7
2016-11-13T11:55:21.222Z,1.8
2016-11-13T11:56:22.658Z,1.8
2016-11-13T11:57:24.235Z,1.8
2016-11-13T11:58:25.173Z,1.8
2016-11-13T11:59:26.609Z,1.8
2016-11-13T12:00:28.055Z,1.8
2016-11-13T12:01:29.497Z,1.8
2016-11-13T12:02:30.932Z,1.8
2016-11-13T12:03:32.371Z,1.8
2016-11-13T12:04:33.816Z,1.8
2016-11-13T12:05:35.251Z,1.9
2016-11-13T12:06:36.725Z,1.9
2016-11-13T12:07:38.171Z,1.9
2016-11-13T12:08:39.612Z,1.9
2016-11-13T12:09:41.053Z,1.9
2016-11-13T12:10:42.492Z,1.9
2016-11-13T12:11:43.976Z,1.9
2016-11-13T12:12:45.413Z,1.9
2016-11-13T12:13:46.849Z,1.9
2016-11-13T12:14:48.286Z,2
2016-11-13T12:15:49.726Z,1.9
2016-11-13T12:16:51.168Z,2
2016-11-13T12:17:52.608Z,1.9
2016-11-13T12:18:54.048Z,2
2016-11-13T12:19:55.485Z,2
2016-11-13T12:20:56.923Z,2
2016-11-13T12:21:58.360Z,2
2016-11-13T12:22:59.805Z,2
2016-11-13T12:24:01.279Z,2
2016-11-13T12:25:02.716Z,2
2016-11-13T12:26:04.297Z,2
2016-11-13T12:27:05.736Z,2
2016-11-13T12:28:07.171Z,2
2016-11-13T12:29:08.608Z,2
2016-11-13T12:30:10.046Z,2.1
2016-11-13T12:31:11.483Z,2.1
2016-11-13T12:32:12.923Z,2.1
2016-11-13T12:33:14.356Z,2.1
2016-11-13T12:34:15.798Z,2.1
2016-11-13T12:35:17.375Z,2.1
2016-11-13T12:36:18.951Z,2.1
2016-11-13T12:38:21.786Z,2.1
2016-11-13T12:39:23.360Z,2.1
2016-11-13T12:40:24.856Z,2.1
2016-11-13T12:41:26.297Z,2.1
2016-11-13T12:42:28.008Z,2.2
2016-11-13T12:43:28.951Z,2.2
2016-11-13T12:44:30.342Z,2.1
2016-11-13T12:45:31.912Z,2.1
2016-11-13T12:46:33.353Z,2.1
2016-11-13T12:47:34.787Z,2.2
2016-11-13T12:48:36.228Z,2.1
2016-11-13T12:49:37.667Z,2.1
2016-11-13T12:50:39.106Z,2.1
2016-11-13T12:51:40.546Z,2.1
2016-11-13T12:53:43.381Z,2.1
2016-11-13T12:54:44.984Z,2.1
2016-11-13T12:56:47.828Z,2.1
2016-11-13T12:57:49.400Z,2.1
2016-11-13T12:58:50.980Z,2.1
2016-11-13T12:59:51.999Z,2.1
2016-11-13T13:00:53.441Z,2.1
2016-11-13T13:01:54.888Z,2.1
2016-11-13T13:02:56.330Z,2.1
2016-11-13T13:03:57.803Z,2.1
2016-11-13T13:04:59.240Z,2.1
2016-11-13T13:06:00.689Z,2.1
2016-11-13T13:07:02.398Z,2.1
2016-11-13T13:08:03.839Z,2.1
2016-11-13T13:09:05.277Z,2.1
2016-11-13T13:10:06.717Z,2.1
2016-11-13T13:11:08.195Z,2.1
2016-11-13T13:12:09.634Z,2.1
2016-11-13T13:13:11.076Z,2.1
2016-11-13T13:14:12.523Z,2.1
2016-11-13T13:15:14.101Z,2.1
2016-11-13T13:16:15.172Z,2.1
2016-11-13T13:17:16.619Z,2.1
2016-11-13T13:18:18.058Z,2.1
2016-11-13T13:19:19.499Z,2.1
2016-11-13T13:20:21.105Z,2.1
2016-11-13T13:21:22.548Z,2.1
2016-11-13T13:22:23.994Z,2.1
2016-11-13T13:23:25.573Z,2.1
2016-11-13T13:24:27.011Z,2.1
2016-11-13T13:25:28.454Z,2.1
2016-11-13T13:26:30.028Z,2.2
2016-11-13T13:27:31.603Z,2.1
2016-11-13T13:28:32.540Z,2.1
2016-11-13T13:29:34.014Z,2.1
2016-11-13T13:30:35.453Z,2.1
2016-11-13T13:31:37.055Z,2.1
2016-11-13T13:33:40.124Z,2.1
2016-11-13T13:34:41.394Z,2.1
2016-11-13T13:35:42.839Z,2.1
2016-11-13T13:36:44.270Z,2.1
2016-11-13T13:37:45.988Z,2.2
2016-11-13T13:38:47.313Z,2.1
2016-11-13T13:39:48.702Z,2.2
2016-11-13T13:40:50.390Z,2.2
2016-11-13T13:41:51.693Z,2.2
2016-11-13T13:42:52.932Z,2.1
2016-11-13T13:44:55.926Z,2.2
2016-11-13T13:45:57.524Z,2.2
2016-11-13T13:48:00.496Z,2.2
2016-11-13T13:49:01.715Z,2.2
2016-11-13T13:50:03.099Z,2.2
2016-11-13T13:51:04.571Z,2.2
2016-11-13T13:52:06.013Z,2.2
2016-11-13T13:53:07.455Z,2.2
2016-11-13T13:54:08.896Z,2.2
2016-11-13T13:56:11.732Z,2.2
2016-11-13T13:57:13.171Z,2.2
2016-11-13T13:58:14.745Z,2.2
2016-11-13T13:59:16.186Z,2.2
2016-11-13T14:00:17.627Z,2.2
2016-11-13T14:01:19.072Z,2.2
2016-11-13T14:02:20.512Z,2.2
2016-11-13T14:03:21.950Z,2.2
2016-11-13T14:04:23.391Z,2.2
2016-11-13T14:05:24.841Z,2.2
2016-11-13T14:07:27.682Z,2.2
2016-11-13T14:08:29.130Z,2.2
2016-11-13T14:09:30.568Z,2.2
2016-11-13T14:10:32.013Z,2.2
2016-11-13T14:11:33.453Z,2.2
2016-11-13T14:12:34.902Z,2.2
2016-11-13T14:13:36.341Z,2.2
2016-11-13T14:14:37.784Z,2.1
2016-11-13T14:15:39.219Z,2.2
2016-11-13T14:16:41.171Z,2.2
2016-11-13T14:17:42.491Z,2.1
2016-11-13T14:18:43.931Z,2.1
2016-11-13T14:19:45.371Z,2.1
2016-11-13T14:20:46.811Z,2.1
2016-11-13T14:21:48.254Z,2.1
2016-11-13T14:23:51.090Z,2.1
2016-11-13T14:24:52.532Z,2.1
2016-11-13T14:25:53.977Z,2.1
2016-11-13T14:26:55.417Z,2.1
2016-11-13T14:27:56.855Z,2.1
2016-11-13T14:28:58.295Z,2
2016-11-13T14:29:59.735Z,2
2016-11-13T14:31:01.182Z,2
2016-11-13T14:32:02.763Z,2
2016-11-13T14:33:04.198Z,2
2016-11-13T14:34:05.635Z,2
2016-11-13T14:35:07.066Z,2
2016-11-13T14:36:08.505Z,2
2016-11-13T14:37:09.942Z,2
2016-11-13T14:38:11.386Z,2
2016-11-13T14:39:12.822Z,2
2016-11-13T14:40:14.259Z,2
2016-11-13T14:41:15.695Z,2
2016-11-13T14:42:17.138Z,2
2016-11-13T14:43:18.595Z,1.9
2016-11-13T14:44:20.040Z,1.9